Terminal Aerodrome Forecast
Issued by NWS

Home | Current Version | Previous Version | Text Only | Print | Product List | Glossary On
Versions: 1 2 3 4 5 6 7 8 9 10 11 12 13 14 15 16 17 18 19 20 21 22 23 24 25 26 27 28 29 30 31 32 33 34 35 36 37 38
284
FTUS45 KBOU 292158 AAB
TAFBJC
TAF AMD
KBJC 292158Z 2922/3018 15008KT P6SM SCT080 BKN120
     FM292300 33011KT P6SM VCTS SCT080CB BKN120
      TEMPO 2923/3001 VRB14G22KT
     FM300100 28008KT P6SM FEW080 SCT140 BKN220
     FM300600 23006KT P6SM FEW140 SCT220
     FM301600 VRB05KT P6SM FEW070 SCT140 BKN220=

USA.gov is the U.S. government's official web portal to all federal, state and local government web resources and services.